Joaquim Tavora, Brazil
Current Conditions -  °F | °C
As of 12:00 AM on Monday 26 Jan 2015 (Local Time) from SBLO Reporting Station
Thunderstorm Thunderstorm  
Wind Chill: 72°   Ceiling: 7000
Heat Index: 72°   Visibility: 6mi
Dew Point: 66°   Wind: 3mph
Humidity: 83%   Direction: 170°S
Pressure: 29.97"   Gusts: NA
Location:  23.5°S, 49.9°W
Report Text: SBLO 260200Z 17003KT 9999 TS SCT030 FEW035CB BKN070 22/19 Q1015
Loading
Personal Weather Stations






























Interactive Weather Map New forecast layout! Learn more

10-Day Weather Forecast

Advertisements
Track Severe Weather on mobile